sensor_id;sensor_type;location;lat;lon;timestamp;P1;durP1;ratioP1;P2;durP2;ratioP2
16973;SDS011;8603;46.944;7.412;2024-03-06T00:02:18;0.73;;;0.73;;
16973;SDS011;8603;46.944;7.412;2024-03-06T00:04:44;1.07;;;0.80;;
16973;SDS011;8603;46.944;7.412;2024-03-06T00:07:10;1.10;;;1.00;;
16973;SDS011;8603;46.944;7.412;2024-03-06T00:09:35;1.77;;;1.23;;
16973;SDS011;8603;46.944;7.412;2024-03-06T00:12:11;0.93;;;0.93;;
16973;SDS011;8603;46.944;7.412;2024-03-06T00:14:36;1.73;;;0.83;;
16973;SDS011;8603;46.944;7.412;2024-03-06T00:17:02;0.87;;;0.87;;
16973;SDS011;8603;46.944;7.412;2024-03-06T00:19:31;0.80;;;0.80;;
16973;SDS011;8603;46.944;7.412;2024-03-06T00:21:57;1.00;;;0.83;;
16973;SDS011;8603;46.944;7.412;2024-03-06T00:24:26;0.93;;;0.90;;
16973;SDS011;8603;46.944;7.412;2024-03-06T00:26:51;1.03;;;1.03;;
16973;SDS011;8603;46.944;7.412;2024-03-06T00:29:17;0.90;;;0.90;;
16973;SDS011;8603;46.944;7.412;2024-03-06T00:31:43;2.10;;;1.17;;
16973;SDS011;8603;46.944;7.412;2024-03-06T00:34:10;1.47;;;1.20;;
16973;SDS011;8603;46.944;7.412;2024-03-06T00:36:37;0.90;;;0.90;;
16973;SDS011;8603;46.944;7.412;2024-03-06T00:39:02;2.40;;;1.27;;
16973;SDS011;8603;46.944;7.412;2024-03-06T00:41:29;1.50;;;1.13;;
16973;SDS011;8603;46.944;7.412;2024-03-06T00:43:55;1.20;;;1.10;;
16973;SDS011;8603;46.944;7.412;2024-03-06T00:46:21;1.73;;;1.60;;
16973;SDS011;8603;46.944;7.412;2024-03-06T00:48:47;1.30;;;1.20;;
16973;SDS011;8603;46.944;7.412;2024-03-06T00:51:12;1.40;;;1.30;;
16973;SDS011;8603;46.944;7.412;2024-03-06T00:53:38;1.30;;;1.20;;
16973;SDS011;8603;46.944;7.412;2024-03-06T00:56:04;1.30;;;1.20;;
16973;SDS011;8603;46.944;7.412;2024-03-06T00:58:30;1.30;;;1.20;;
16973;SDS011;8603;46.944;7.412;2024-03-06T01:00:55;1.20;;;1.10;;
16973;SDS011;8603;46.944;7.412;2024-03-06T01:03:22;1.87;;;1.20;;
16973;SDS011;8603;46.944;7.412;2024-03-06T01:05:47;1.40;;;1.30;;
16973;SDS011;8603;46.944;7.412;2024-03-06T01:08:13;1.57;;;1.40;;
16973;SDS011;8603;46.944;7.412;2024-03-06T01:10:44;1.30;;;1.20;;
16973;SDS011;8603;46.944;7.412;2024-03-06T07:08:38;6.47;;;4.77;;
16973;SDS011;8603;46.944;7.412;2024-03-06T07:12:13;6.53;;;4.83;;
16973;SDS011;8603;46.944;7.412;2024-03-06T07:14:39;6.73;;;5.33;;
16973;SDS011;8603;46.944;7.412;2024-03-06T07:17:04;7.73;;;5.80;;
16973;SDS011;8603;46.944;7.412;2024-03-06T07:19:30;7.40;;;6.13;;
16973;SDS011;8603;46.944;7.412;2024-03-06T07:21:55;7.70;;;6.20;;
16973;SDS011;8603;46.944;7.412;2024-03-06T07:24:21;6.83;;;5.30;;
16973;SDS011;8603;46.944;7.412;2024-03-06T07:26:47;6.50;;;5.33;;
16973;SDS011;8603;46.944;7.412;2024-03-06T07:29:12;6.43;;;5.00;;
16973;SDS011;8603;46.944;7.412;2024-03-06T07:39:26;5.40;;;4.50;;
16973;SDS011;8603;46.944;7.412;2024-03-06T07:41:52;6.17;;;4.73;;
16973;SDS011;8603;46.944;7.412;2024-03-06T07:44:19;5.43;;;4.80;;
16973;SDS011;8603;46.944;7.412;2024-03-06T07:46:45;5.43;;;4.60;;
16973;SDS011;8603;46.944;7.412;2024-03-06T07:49:11;5.57;;;4.67;;
16973;SDS011;8603;46.944;7.412;2024-03-06T07:51:36;4.90;;;4.30;;
16973;SDS011;8603;46.944;7.412;2024-03-06T07:54:02;5.87;;;5.23;;
16973;SDS011;8603;46.944;7.412;2024-03-06T07:56:30;5.97;;;4.30;;
16973;SDS011;8603;46.944;7.412;2024-03-06T07:58:56;4.70;;;4.03;;
16973;SDS011;8603;46.944;7.412;2024-03-06T08:11:22;5.10;;;4.20;;
16973;SDS011;8603;46.944;7.412;2024-03-06T08:13:49;4.53;;;4.13;;
16973;SDS011;8603;46.944;7.412;2024-03-06T08:16:21;4.40;;;3.60;;
16973;SDS011;8603;46.944;7.412;2024-03-06T08:18:51;4.47;;;3.97;;
16973;SDS011;8603;46.944;7.412;2024-03-06T08:21:23;5.33;;;4.80;;
16973;SDS011;8603;46.944;7.412;2024-03-06T08:23:50;4.73;;;4.03;;
16973;SDS011;8603;46.944;7.412;2024-03-06T08:26:26;5.93;;;4.30;;
16973;SDS011;8603;46.944;7.412;2024-03-06T08:28:51;6.00;;;4.80;;
16973;SDS011;8603;46.944;7.412;2024-03-06T08:31:18;6.50;;;3.87;;
16973;SDS011;8603;46.944;7.412;2024-03-06T08:33:43;4.80;;;4.20;;
16973;SDS011;8603;46.944;7.412;2024-03-06T08:36:09;5.57;;;3.77;;
16973;SDS011;8603;46.944;7.412;2024-03-06T08:38:35;8.80;;;4.27;;
16973;SDS011;8603;46.944;7.412;2024-03-06T08:41:00;5.10;;;3.93;;
16973;SDS011;8603;46.944;7.412;2024-03-06T08:43:26;4.80;;;3.73;;
16973;SDS011;8603;46.944;7.412;2024-03-06T08:45:52;4.13;;;3.73;;
16973;SDS011;8603;46.944;7.412;2024-03-06T08:48:17;5.07;;;3.97;;
16973;SDS011;8603;46.944;7.412;2024-03-06T08:50:43;4.97;;;3.83;;
16973;SDS011;8603;46.944;7.412;2024-03-06T08:53:09;5.40;;;4.13;;
16973;SDS011;8603;46.944;7.412;2024-03-06T08:55:34;4.30;;;3.40;;
16973;SDS011;8603;46.944;7.412;2024-03-06T08:58:00;4.47;;;4.00;;
16973;SDS011;8603;46.944;7.412;2024-03-06T09:00:29;4.07;;;3.57;;
16973;SDS011;8603;46.944;7.412;2024-03-06T09:02:55;4.40;;;3.90;;
16973;SDS011;8603;46.944;7.412;2024-03-06T09:05:20;6.87;;;4.53;;
16973;SDS011;8603;46.944;7.412;2024-03-06T09:07:47;4.10;;;3.70;;
16973;SDS011;8603;46.944;7.412;2024-03-06T09:10:13;6.60;;;3.50;;
16973;SDS011;8603;46.944;7.412;2024-03-06T09:12:38;5.57;;;4.17;;
16973;SDS011;8603;46.944;7.412;2024-03-06T09:15:04;4.10;;;3.70;;
16973;SDS011;8603;46.944;7.412;2024-03-06T09:17:45;3.87;;;3.30;;
16973;SDS011;8603;46.944;7.412;2024-03-06T09:20:26;4.43;;;3.37;;
16973;SDS011;8603;46.944;7.412;2024-03-06T09:22:52;3.77;;;3.07;;
16973;SDS011;8603;46.944;7.412;2024-03-06T09:25:21;3.40;;;3.10;;
16973;SDS011;8603;46.944;7.412;2024-03-06T09:27:47;3.20;;;2.90;;
16973;SDS011;8603;46.944;7.412;2024-03-06T09:30:15;4.37;;;2.97;;
16973;SDS011;8603;46.944;7.412;2024-03-06T09:32:42;4.30;;;3.10;;
16973;SDS011;8603;46.944;7.412;2024-03-06T09:35:09;3.53;;;3.13;;
16973;SDS011;8603;46.944;7.412;2024-03-06T09:37:35;3.70;;;2.90;;
16973;SDS011;8603;46.944;7.412;2024-03-06T09:40:00;3.20;;;2.70;;
16973;SDS011;8603;46.944;7.412;2024-03-06T09:42:26;3.27;;;2.97;;
16973;SDS011;8603;46.944;7.412;2024-03-06T09:44:51;5.10;;;3.07;;
16973;SDS011;8603;46.944;7.412;2024-03-06T09:47:19;2.87;;;2.67;;
16973;SDS011;8603;46.944;7.412;2024-03-06T09:49:51;3.10;;;2.80;;
16973;SDS011;8603;46.944;7.412;2024-03-06T09:52:20;3.27;;;2.90;;
16973;SDS011;8603;46.944;7.412;2024-03-06T09:54:49;2.80;;;2.60;;
16973;SDS011;8603;46.944;7.412;2024-03-06T09:57:16;4.37;;;3.40;;
16973;SDS011;8603;46.944;7.412;2024-03-06T09:59:42;2.97;;;2.70;;
16973;SDS011;8603;46.944;7.412;2024-03-06T10:02:13;3.23;;;2.90;;
16973;SDS011;8603;46.944;7.412;2024-03-06T10:04:49;4.03;;;3.00;;
16973;SDS011;8603;46.944;7.412;2024-03-06T10:07:14;5.50;;;4.20;;
16973;SDS011;8603;46.944;7.412;2024-03-06T10:09:40;4.73;;;2.90;;
16973;SDS011;8603;46.944;7.412;2024-03-06T10:12:06;4.50;;;3.00;;
16973;SDS011;8603;46.944;7.412;2024-03-06T10:14:31;2.77;;;2.30;;
16973;SDS011;8603;46.944;7.412;2024-03-06T10:16:58;2.70;;;2.50;;
16973;SDS011;8603;46.944;7.412;2024-03-06T10:19:25;2.73;;;2.43;;
16973;SDS011;8603;46.944;7.412;2024-03-06T10:21:53;3.00;;;2.70;;
16973;SDS011;8603;46.944;7.412;2024-03-06T10:24:24;2.40;;;2.20;;
16973;SDS011;8603;46.944;7.412;2024-03-06T10:26:50;2.53;;;1.97;;
16973;SDS011;8603;46.944;7.412;2024-03-06T10:29:19;2.83;;;2.63;;
16973;SDS011;8603;46.944;7.412;2024-03-06T10:34:17;3.10;;;2.30;;
16973;SDS011;8603;46.944;7.412;2024-03-06T10:36:45;2.87;;;2.20;;
16973;SDS011;8603;46.944;7.412;2024-03-06T10:39:11;2.40;;;2.20;;
16973;SDS011;8603;46.944;7.412;2024-03-06T10:41:40;3.70;;;2.30;;
16973;SDS011;8603;46.944;7.412;2024-03-06T10:44:09;3.53;;;2.30;;
16973;SDS011;8603;46.944;7.412;2024-03-06T10:46:39;3.63;;;2.43;;
16973;SDS011;8603;46.944;7.412;2024-03-06T10:49:09;3.70;;;2.53;;
16973;SDS011;8603;46.944;7.412;2024-03-06T10:51:38;2.10;;;1.90;;
16973;SDS011;8603;46.944;7.412;2024-03-06T10:54:09;3.03;;;2.47;;
16973;SDS011;8603;46.944;7.412;2024-03-06T10:56:38;2.30;;;2.10;;
16973;SDS011;8603;46.944;7.412;2024-03-06T10:59:07;2.93;;;2.60;;
16973;SDS011;8603;46.944;7.412;2024-03-06T11:01:35;1.90;;;1.63;;
16973;SDS011;8603;46.944;7.412;2024-03-06T11:04:02;2.53;;;2.33;;
16973;SDS011;8603;46.944;7.412;2024-03-06T11:06:28;2.10;;;1.90;;
16973;SDS011;8603;46.944;7.412;2024-03-06T11:08:54;3.20;;;1.93;;
16973;SDS011;8603;46.944;7.412;2024-03-06T11:11:20;2.10;;;1.90;;
16973;SDS011;8603;46.944;7.412;2024-03-06T11:13:47;1.97;;;1.60;;
16973;SDS011;8603;46.944;7.412;2024-03-06T11:16:13;2.27;;;1.80;;
16973;SDS011;8603;46.944;7.412;2024-03-06T11:23:30;2.73;;;1.90;;
16973;SDS011;8603;46.944;7.412;2024-03-06T11:26:00;2.17;;;1.97;;
16973;SDS011;8603;46.944;7.412;2024-03-06T11:28:29;3.10;;;2.77;;
16973;SDS011;8603;46.944;7.412;2024-03-06T11:31:03;2.33;;;1.90;;
16973;SDS011;8603;46.944;7.412;2024-03-06T11:33:43;3.50;;;1.90;;
16973;SDS011;8603;46.944;7.412;2024-03-06T11:36:20;3.47;;;1.90;;
16973;SDS011;8603;46.944;7.412;2024-03-06T11:38:53;3.97;;;2.60;;
16973;SDS011;8603;46.944;7.412;2024-03-06T11:44:07;2.23;;;1.90;;
16973;SDS011;8603;46.944;7.412;2024-03-06T11:46:41;3.10;;;2.30;;
16973;SDS011;8603;46.944;7.412;2024-03-06T11:49:16;1.90;;;1.70;;
16973;SDS011;8603;46.944;7.412;2024-03-06T11:51:49;1.87;;;1.70;;
16973;SDS011;8603;46.944;7.412;2024-03-06T11:54:16;2.90;;;1.67;;
16973;SDS011;8603;46.944;7.412;2024-03-06T11:56:48;3.10;;;2.00;;
16973;SDS011;8603;46.944;7.412;2024-03-06T11:59:15;2.63;;;1.80;;
16973;SDS011;8603;46.944;7.412;2024-03-06T12:01:41;2.50;;;1.83;;
16973;SDS011;8603;46.944;7.412;2024-03-06T12:04:06;1.50;;;1.40;;
16973;SDS011;8603;46.944;7.412;2024-03-06T12:06:32;1.83;;;1.70;;
16973;SDS011;8603;46.944;7.412;2024-03-06T12:09:02;1.60;;;1.50;;
16973;SDS011;8603;46.944;7.412;2024-03-06T12:11:28;2.63;;;1.90;;
16973;SDS011;8603;46.944;7.412;2024-03-06T12:13:56;1.60;;;1.40;;
16973;SDS011;8603;46.944;7.412;2024-03-06T12:16:22;2.00;;;1.73;;
16973;SDS011;8603;46.944;7.412;2024-03-06T12:18:57;1.70;;;1.60;;
16973;SDS011;8603;46.944;7.412;2024-03-06T12:21:27;2.07;;;1.70;;
16973;SDS011;8603;46.944;7.412;2024-03-06T12:24:05;1.70;;;1.60;;
16973;SDS011;8603;46.944;7.412;2024-03-06T12:26:35;2.20;;;1.50;;
16973;SDS011;8603;46.944;7.412;2024-03-06T12:29:08;1.90;;;1.80;;
16973;SDS011;8603;46.944;7.412;2024-03-06T12:31:36;1.80;;;1.20;;
16973;SDS011;8603;46.944;7.412;2024-03-06T12:34:05;1.40;;;1.30;;
16973;SDS011;8603;46.944;7.412;2024-03-06T12:36:31;1.47;;;1.37;;
16973;SDS011;8603;46.944;7.412;2024-03-06T12:39:04;1.93;;;1.30;;
16973;SDS011;8603;46.944;7.412;2024-03-06T12:41:37;1.50;;;1.40;;
16973;SDS011;8603;46.944;7.412;2024-03-06T12:44:05;2.37;;;1.40;;
16973;SDS011;8603;46.944;7.412;2024-03-06T12:46:31;4.33;;;2.70;;
16973;SDS011;8603;46.944;7.412;2024-03-06T12:48:57;3.10;;;2.40;;
16973;SDS011;8603;46.944;7.412;2024-03-06T12:51:23;3.10;;;2.07;;
16973;SDS011;8603;46.944;7.412;2024-03-06T12:53:48;1.90;;;1.50;;
16973;SDS011;8603;46.944;7.412;2024-03-06T12:56:14;2.13;;;1.90;;
16973;SDS011;8603;46.944;7.412;2024-03-06T12:58:40;2.63;;;1.43;;
16973;SDS011;8603;46.944;7.412;2024-03-06T13:01:06;1.43;;;1.33;;
16973;SDS011;8603;46.944;7.412;2024-03-06T13:03:32;1.43;;;1.33;;
16973;SDS011;8603;46.944;7.412;2024-03-06T13:05:57;1.40;;;1.30;;
16973;SDS011;8603;46.944;7.412;2024-03-06T13:57:32;1.53;;;1.10;;
16973;SDS011;8603;46.944;7.412;2024-03-06T14:00:58;1.27;;;1.20;;
16973;SDS011;8603;46.944;7.412;2024-03-06T14:04:11;2.47;;;1.50;;
16973;SDS011;8603;46.944;7.412;2024-03-06T14:08:07;3.00;;;2.43;;
16973;SDS011;8603;46.944;7.412;2024-03-06T14:11:58;4.13;;;1.90;;
16973;SDS011;8603;46.944;7.412;2024-03-06T14:18:55;1.20;;;1.10;;
16973;SDS011;8603;46.944;7.412;2024-03-06T19:19:51;4.37;;;3.97;;
16973;SDS011;8603;46.944;7.412;2024-03-06T19:22:19;5.17;;;4.20;;
16973;SDS011;8603;46.944;7.412;2024-03-06T19:30:59;6.67;;;4.10;;
16973;SDS011;8603;46.944;7.412;2024-03-06T19:34:24;5.30;;;4.30;;
16973;SDS011;8603;46.944;7.412;2024-03-06T19:37:54;4.77;;;4.23;;
16973;SDS011;8603;46.944;7.412;2024-03-06T19:40:32;4.87;;;4.37;;
16973;SDS011;8603;46.944;7.412;2024-03-06T19:43:05;6.27;;;4.93;;
16973;SDS011;8603;46.944;7.412;2024-03-06T19:48:28;6.57;;;4.87;;
16973;SDS011;8603;46.944;7.412;2024-03-06T19:51:27;6.20;;;5.47;;
16973;SDS011;8603;46.944;7.412;2024-03-06T19:57:31;6.53;;;4.93;;
16973;SDS011;8603;46.944;7.412;2024-03-06T20:00:09;8.70;;;6.03;;
16973;SDS011;8603;46.944;7.412;2024-03-06T20:02:57;8.07;;;6.33;;
16973;SDS011;8603;46.944;7.412;2024-03-06T20:05:29;8.67;;;6.53;;
16973;SDS011;8603;46.944;7.412;2024-03-06T20:07:56;16.77;;;11.17;;
16973;SDS011;8603;46.944;7.412;2024-03-06T20:10:22;14.90;;;9.77;;
16973;SDS011;8603;46.944;7.412;2024-03-06T20:12:48;8.80;;;6.60;;
16973;SDS011;8603;46.944;7.412;2024-03-06T20:15:14;8.97;;;6.90;;
16973;SDS011;8603;46.944;7.412;2024-03-06T20:17:40;7.93;;;6.13;;
16973;SDS011;8603;46.944;7.412;2024-03-06T20:20:07;9.70;;;7.60;;
16973;SDS011;8603;46.944;7.412;2024-03-06T20:22:37;10.90;;;7.80;;
16973;SDS011;8603;46.944;7.412;2024-03-06T20:25:04;7.70;;;6.53;;
16973;SDS011;8603;46.944;7.412;2024-03-06T20:27:31;10.63;;;6.73;;
16973;SDS011;8603;46.944;7.412;2024-03-06T20:29:57;8.70;;;7.03;;
16973;SDS011;8603;46.944;7.412;2024-03-06T20:32:23;10.73;;;8.57;;
16973;SDS011;8603;46.944;7.412;2024-03-06T20:34:49;9.13;;;7.37;;
16973;SDS011;8603;46.944;7.412;2024-03-06T20:37:15;11.27;;;7.17;;
16973;SDS011;8603;46.944;7.412;2024-03-06T20:39:40;8.47;;;6.57;;
16973;SDS011;8603;46.944;7.412;2024-03-06T20:42:06;9.57;;;7.73;;
16973;SDS011;8603;46.944;7.412;2024-03-06T20:44:32;11.17;;;9.30;;
16973;SDS011;8603;46.944;7.412;2024-03-06T20:46:58;9.07;;;6.93;;
16973;SDS011;8603;46.944;7.412;2024-03-06T20:49:24;7.77;;;6.83;;
16973;SDS011;8603;46.944;7.412;2024-03-06T20:57:37;11.23;;;6.83;;
16973;SDS011;8603;46.944;7.412;2024-03-06T21:00:09;8.67;;;7.27;;
16973;SDS011;8603;46.944;7.412;2024-03-06T21:02:48;8.07;;;6.80;;
16973;SDS011;8603;46.944;7.412;2024-03-06T21:08:43;13.23;;;10.17;;
16973;SDS011;8603;46.944;7.412;2024-03-06T21:11:47;11.50;;;8.13;;
16973;SDS011;8603;46.944;7.412;2024-03-06T21:24:51;17.63;;;13.80;;
16973;SDS011;8603;46.944;7.412;2024-03-06T21:27:43;12.07;;;9.23;;
16973;SDS011;8603;46.944;7.412;2024-03-06T21:33:31;11.00;;;9.60;;
16973;SDS011;8603;46.944;7.412;2024-03-06T21:39:06;9.93;;;8.53;;
16973;SDS011;8603;46.944;7.412;2024-03-06T21:41:40;18.60;;;13.90;;
16973;SDS011;8603;46.944;7.412;2024-03-06T21:45:11;9.77;;;7.73;;
16973;SDS011;8603;46.944;7.412;2024-03-06T22:45:34;9.93;;;7.37;;
16973;SDS011;8603;46.944;7.412;2024-03-06T22:48:26;10.03;;;7.70;;
16973;SDS011;8603;46.944;7.412;2024-03-06T22:51:31;8.90;;;6.77;;
16973;SDS011;8603;46.944;7.412;2024-03-06T23:00:40;13.00;;;7.37;;
16973;SDS011;8603;46.944;7.412;2024-03-06T23:03:32;8.23;;;7.20;;
16973;SDS011;8603;46.944;7.412;2024-03-06T23:06:27;12.63;;;7.10;;
16973;SDS011;8603;46.944;7.412;2024-03-06T23:12:51;8.17;;;6.73;;
16973;SDS011;8603;46.944;7.412;2024-03-06T23:22:11;10.20;;;7.83;;
16973;SDS011;8603;46.944;7.412;2024-03-06T23:24:46;9.83;;;7.57;;
16973;SDS011;8603;46.944;7.412;2024-03-06T23:27:13;9.60;;;7.40;;
16973;SDS011;8603;46.944;7.412;2024-03-06T23:30:05;7.90;;;7.07;;
16973;SDS011;8603;46.944;7.412;2024-03-06T23:35:49;9.07;;;6.70;;
16973;SDS011;8603;46.944;7.412;2024-03-06T23:38:22;8.43;;;7.00;;
16973;SDS011;8603;46.944;7.412;2024-03-06T23:41:32;9.30;;;7.60;;
16973;SDS011;8603;46.944;7.412;2024-03-06T23:51:28;10.53;;;6.73;;
16973;SDS011;8603;46.944;7.412;2024-03-06T23:58:01;8.17;;;6.20;;
